createdAt,value
2018-07-07T00:05:14.217Z,94.60
2018-07-07T00:08:17.825Z,95.00
2018-07-07T00:11:21.478Z,95.20
2018-07-07T00:14:25.103Z,95.50
2018-07-07T00:17:28.749Z,95.90
2018-07-07T00:20:32.363Z,96.30
2018-07-07T00:26:39.395Z,96.70
2018-07-07T00:29:43.021Z,96.90
2018-07-07T00:32:46.650Z,97.30
2018-07-07T00:35:50.306Z,97.60
2018-07-07T00:38:53.931Z,97.80
2018-07-07T00:41:57.567Z,98.10
2018-07-07T00:45:01.183Z,98.60
2018-07-07T00:51:08.288Z,99.10
2018-07-07T00:57:15.258Z,99.70
2018-07-07T01:00:19.669Z,99.90
2018-07-07T01:03:23.315Z,99.90
2018-07-07T01:06:29.125Z,99.90
2018-07-07T01:09:32.809Z,99.90
2018-07-07T01:12:36.473Z,99.90
2018-07-07T01:15:40.430Z,99.90
2018-07-07T01:18:44.062Z,99.90
2018-07-07T01:21:47.688Z,99.90
2018-07-07T01:24:51.346Z,99.90
2018-07-07T01:27:55.071Z,99.90
2018-07-07T01:30:58.996Z,99.90
2018-07-07T01:34:02.577Z,99.90
2018-07-07T01:37:06.335Z,99.90
2018-07-07T01:40:16.867Z,99.90
2018-07-07T01:46:23.962Z,99.90
2018-07-07T01:49:27.711Z,99.90
2018-07-07T01:52:31.326Z,99.90
2018-07-07T01:55:34.954Z,99.90
2018-07-07T01:58:38.564Z,99.90
2018-07-07T02:01:42.215Z,99.90
2018-07-07T02:04:46.034Z,99.90
2018-07-07T02:07:49.657Z,99.90
2018-07-07T02:10:53.293Z,99.90
2018-07-07T02:17:00.253Z,99.90
2018-07-07T02:20:03.968Z,99.90
2018-07-07T02:23:07.608Z,99.90
2018-07-07T02:26:11.409Z,99.90
2018-07-07T02:29:15.055Z,99.90
2018-07-07T02:32:18.677Z,99.90
2018-07-07T02:35:22.307Z,99.90
2018-07-07T02:41:29.285Z,99.90
2018-07-07T02:44:32.879Z,99.90
2018-07-07T02:47:36.702Z,99.90
2018-07-07T02:50:40.332Z,99.90
2018-07-07T02:53:43.979Z,99.90
2018-07-07T02:56:47.586Z,99.90
2018-07-07T02:59:51.287Z,99.90
2018-07-07T03:02:54.904Z,99.90
2018-07-07T03:05:58.527Z,99.90
2018-07-07T03:09:02.146Z,99.90
2018-07-07T03:12:06.209Z,99.90
2018-07-07T03:15:10.754Z,99.90
2018-07-07T03:18:14.375Z,99.90
2018-07-07T03:24:21.342Z,99.90
2018-07-07T03:27:24.987Z,99.90
2018-07-07T03:30:28.594Z,99.90
2018-07-07T03:33:32.255Z,99.90
2018-07-07T03:36:35.947Z,99.90
2018-07-07T03:39:39.579Z,99.90
2018-07-07T03:45:46.575Z,99.90
2018-07-07T03:51:53.649Z,99.90
2018-07-07T03:54:57.271Z,99.90
2018-07-07T03:58:00.915Z,99.90
2018-07-07T04:01:04.532Z,99.90
2018-07-07T04:04:08.165Z,99.90
2018-07-07T04:07:11.845Z,99.90
2018-07-07T04:10:15.401Z,99.90
2018-07-07T04:13:19.011Z,99.90
2018-07-07T04:16:22.636Z,99.90
2018-07-07T04:19:26.255Z,99.90
2018-07-07T04:22:29.898Z,99.90
2018-07-07T04:25:33.537Z,99.90
2018-07-07T04:28:37.170Z,99.90
2018-07-07T04:31:40.790Z,99.90
2018-07-07T04:34:44.423Z,99.90
2018-07-07T04:37:48.252Z,99.90
2018-07-07T04:40:51.890Z,99.90
2018-07-07T04:43:55.502Z,99.90
2018-07-07T04:46:59.137Z,99.90
2018-07-07T04:50:02.746Z,99.90
2018-07-07T04:53:06.700Z,99.90
2018-07-07T04:56:10.305Z,99.90
2018-07-07T04:59:13.989Z,99.90
2018-07-07T05:02:17.611Z,99.90
2018-07-07T05:05:21.303Z,99.90
2018-07-07T05:08:24.920Z,99.90
2018-07-07T05:11:28.556Z,99.90
2018-07-07T05:17:36.739Z,99.90
2018-07-07T05:20:40.350Z,99.90
2018-07-07T05:23:43.992Z,99.90
2018-07-07T05:29:50.971Z,99.90
2018-07-07T05:35:58.181Z,99.90
2018-07-07T05:39:01.768Z,99.90
2018-07-07T05:42:05.392Z,99.40
2018-07-07T05:45:09.007Z,98.80
2018-07-07T05:48:12.663Z,97.90
2018-07-07T05:51:16.279Z,97.20
2018-07-07T05:54:19.927Z,96.00
2018-07-07T05:57:23.621Z,96.20
2018-07-07T06:00:27.892Z,94.50
2018-07-07T06:03:31.490Z,94.20
2018-07-07T06:06:35.167Z,93.10
2018-07-07T06:09:38.776Z,93.20
2018-07-07T06:12:42.426Z,94.30
2018-07-07T06:15:46.042Z,96.70
2018-07-07T06:18:49.981Z,97.30
2018-07-07T06:21:53.854Z,97.10
2018-07-07T06:24:57.737Z,96.50
2018-07-07T06:28:01.361Z,96.70
2018-07-07T06:31:05.081Z,97.80
2018-07-07T06:34:08.769Z,96.90
2018-07-07T06:37:12.425Z,95.80
2018-07-07T06:40:16.028Z,95.60
2018-07-07T06:43:19.663Z,95.10
2018-07-07T06:46:23.277Z,94.50
2018-07-07T06:49:27.047Z,93.00
2018-07-07T06:52:30.780Z,92.10
2018-07-07T06:55:34.383Z,91.20
2018-07-07T07:01:41.426Z,93.10
2018-07-07T07:04:45.050Z,92.80
2018-07-07T07:07:48.737Z,92.40
2018-07-07T07:10:52.652Z,91.90
2018-07-07T07:13:56.279Z,91.30
2018-07-07T07:16:59.920Z,90.90
2018-07-07T07:20:03.635Z,90.60
2018-07-07T07:23:07.160Z,89.80
2018-07-07T07:26:10.880Z,90.20
2018-07-07T07:29:14.419Z,87.50
2018-07-07T07:32:18.067Z,86.30
2018-07-07T07:35:21.678Z,86.70
2018-07-07T07:38:25.342Z,86.20
2018-07-07T07:41:28.991Z,88.20
2018-07-07T07:44:32.631Z,89.40
2018-07-07T07:47:36.253Z,90.60
2018-07-07T07:50:39.981Z,91.50
2018-07-07T07:53:43.598Z,91.50
2018-07-07T08:00:14.179Z,89.30
2018-07-07T08:06:21.635Z,85.90
2018-07-07T08:09:25.551Z,86.10
2018-07-07T08:12:29.179Z,87.00
2018-07-07T08:15:32.802Z,87.00
2018-07-07T08:18:36.411Z,86.40
2018-07-07T08:21:40.062Z,84.50
2018-07-07T08:24:43.925Z,83.60
2018-07-07T08:27:47.545Z,84.70
2018-07-07T08:30:51.263Z,85.20
2018-07-07T08:33:54.886Z,86.30
2018-07-07T08:36:58.639Z,86.40
2018-07-07T08:40:02.283Z,87.50
2018-07-07T08:43:06.114Z,87.50
2018-07-07T08:46:09.777Z,85.30
2018-07-07T08:49:13.418Z,81.80
2018-07-07T08:52:17.010Z,79.60
2018-07-07T08:55:20.644Z,80.30
2018-07-07T08:58:24.280Z,82.00
2018-07-07T09:01:27.889Z,82.30
2018-07-07T09:04:31.529Z,80.60
2018-07-07T09:07:35.172Z,77.70
2018-07-07T09:10:38.791Z,78.00
2018-07-07T09:13:42.410Z,77.90
2018-07-07T09:16:46.035Z,78.40
2018-07-07T09:19:49.660Z,78.40
2018-07-07T09:22:53.277Z,79.10
2018-07-07T09:25:56.897Z,81.10
2018-07-07T09:29:00.530Z,80.50
2018-07-07T09:32:04.235Z,81.60
2018-07-07T09:35:07.873Z,82.40
2018-07-07T09:41:14.834Z,78.70
2018-07-07T09:44:18.471Z,78.30
2018-07-07T09:47:22.147Z,77.50
2018-07-07T09:50:25.774Z,77.30
2018-07-07T09:56:32.756Z,77.80
2018-07-07T09:59:36.522Z,80.00
2018-07-07T10:02:40.174Z,81.20
2018-07-07T10:08:47.182Z,82.00
2018-07-07T10:11:50.847Z,82.50
2018-07-07T10:14:54.502Z,82.90
2018-07-07T10:17:58.139Z,82.20
2018-07-07T10:21:21.481Z,74.30
2018-07-07T10:24:46.792Z,75.70
2018-07-07T10:45:41.763Z,69.80
2018-07-07T10:48:45.367Z,65.90
2018-07-07T10:51:48.967Z,66.90
2018-07-07T10:54:52.606Z,63.80
2018-07-07T10:57:56.306Z,63.00
2018-07-07T11:00:59.942Z,62.40
2018-07-07T11:07:41.376Z,61.50
2018-07-07T11:10:45.034Z,61.30
2018-07-07T11:13:48.645Z,61.30
2018-07-07T11:16:52.278Z,60.50
2018-07-07T11:26:02.867Z,59.40
2018-07-07T11:29:13.053Z,58.40
2018-07-07T11:32:16.682Z,54.80
2018-07-07T11:35:20.304Z,56.60
2018-07-07T11:38:23.914Z,57.50
2018-07-07T11:41:27.670Z,57.40
2018-07-07T11:44:31.290Z,58.50
2018-07-07T11:47:34.962Z,59.00
2018-07-07T11:50:38.582Z,59.30
2018-07-07T11:53:42.388Z,59.80
2018-07-07T11:56:52.824Z,59.20
2018-07-07T12:02:59.818Z,58.50
2018-07-07T12:09:07.223Z,56.80
2018-07-07T12:12:10.831Z,54.90
2018-07-07T12:18:17.831Z,54.80
2018-07-07T12:21:21.458Z,55.30
2018-07-07T12:24:25.137Z,55.50
2018-07-07T12:27:28.737Z,54.70
2018-07-07T12:30:32.336Z,55.00
2018-07-07T12:36:39.303Z,54.50
2018-07-07T12:39:42.927Z,52.60
2018-07-07T12:42:46.526Z,53.90
2018-07-07T12:45:50.151Z,54.10
2018-07-07T12:51:08.237Z,52.40
2018-07-07T12:54:12.867Z,51.00
2018-07-07T12:57:16.558Z,50.80
2018-07-07T13:00:20.241Z,51.80
2018-07-07T13:03:23.851Z,50.90
2018-07-07T13:06:27.475Z,51.50
2018-07-07T13:09:31.126Z,52.00
2018-07-07T13:12:34.764Z,53.10
2018-07-07T13:15:38.424Z,53.10
2018-07-07T13:18:42.050Z,53.00
2018-07-07T13:25:55.266Z,51.90
2018-07-07T13:28:58.906Z,51.00
2018-07-07T13:32:02.535Z,51.10
2018-07-07T13:35:06.166Z,52.10
2018-07-07T13:38:09.921Z,52.30
2018-07-07T13:41:13.575Z,53.30
2018-07-07T13:44:17.169Z,53.80
2018-07-07T13:47:20.794Z,54.10
2018-07-07T13:50:24.424Z,53.70
2018-07-07T13:53:28.113Z,52.50
2018-07-07T14:02:38.511Z,52.00
2018-07-07T14:05:42.213Z,51.90
2018-07-07T14:08:45.790Z,52.60
2018-07-07T14:11:49.519Z,52.30
2018-07-07T14:14:53.101Z,53.30
2018-07-07T14:17:56.777Z,54.20
2018-07-07T14:21:00.473Z,54.50
2018-07-07T14:24:04.189Z,54.60
2018-07-07T14:27:07.906Z,53.70
2018-07-07T14:30:11.640Z,54.60
2018-07-07T14:33:15.231Z,54.90
2018-07-07T14:39:22.550Z,55.50
2018-07-07T14:42:52.854Z,56.30
2018-07-07T14:46:06.359Z,57.20
2018-07-07T14:49:09.979Z,58.00
2018-07-07T14:52:13.581Z,57.70
2018-07-07T14:55:18.523Z,57.90
2018-07-07T14:58:22.199Z,57.80
2018-07-07T15:12:09.049Z,57.70
2018-07-07T15:15:13.174Z,57.80
2018-07-07T15:25:27.797Z,57.30
2018-07-07T15:28:31.430Z,57.00
2018-07-07T15:38:12.401Z,57.60
2018-07-07T15:41:16.051Z,57.20
2018-07-07T15:44:19.748Z,57.50
2018-07-07T15:47:23.503Z,57.90
2018-07-07T15:57:38.270Z,58.00
2018-07-07T16:00:43.894Z,58.30
2018-07-07T16:03:47.941Z,58.80
2018-07-07T16:07:10.700Z,58.80
2018-07-07T16:10:14.361Z,58.80
2018-07-07T16:16:30.982Z,59.10
2018-07-07T16:25:50.299Z,59.90
2018-07-07T16:28:53.982Z,60.80
2018-07-07T16:32:11.786Z,61.50
2018-07-07T16:35:16.562Z,61.90
2018-07-07T16:40:14.939Z,62.10
